»·PEaware :: CJC2674 KSBA-KPSP

CJC2674 :: KSBA-KPSP

FLIGHT INFORMATION

Flight Status: Arrived
Operator:
Colgan Air
More flights by this operator :: More flights under this callsign
Pilot: Walter H. (552)
Aircraft: DEHAVILLAND DASH 8 400
(DH8D)
More flights by this aircraft type
Origin: KSBA Santa Barbara Mun
United States
Destination: KPSP Palm Springs Intl
United States
More flights between these airports :: More routes between these airports
Route: FIM V186 ITSME V264 POM V197 PDZ V186 NIKKL V64 TRM PSP
File this flight plan on PilotEdge
Remarks: TEC Route SBAN36
Altitude:
(Current/Filed)
15,000ft
Speed:
(Current/Filed)
280kts
Departed: 19-Jan-16 08:54 PM
Arrived: 19-Jan-16 09:42 PM
Distance/Time
Traveled:
170nm/0:47
Distance/Time
To Go:
Arrived

Flight Plot

Page will automatically refresh every two minutes.


Map Options




Map Legend


Flown Route
Filed Route
Departure Airport
Arrival Airport
Navaid (VOR, NDB)
Fix

Horizontal Profiles

Position Reports

Time Latitude Longitude Heading Altitude Ground
Speed
19-Jan-16 20:13 34.426107 -119.837083 178 17ft 0kts
19-Jan-16 20:14 34.426107 -119.837083 178 17ft 0kts
19-Jan-16 20:15 34.426107 -119.837083 178 17ft 0kts
19-Jan-16 20:16 34.426107 -119.837083 178 17ft 0kts
19-Jan-16 20:17 34.426107 -119.837083 178 17ft 0kts
19-Jan-16 20:18 34.426107 -119.837083 178 17ft 0kts
19-Jan-16 20:19 34.426107 -119.837083 178 17ft 0kts
19-Jan-16 20:20 34.426107 -119.837083 178 17ft 0kts
19-Jan-16 20:21 34.426107 -119.837083 178 17ft 0kts
19-Jan-16 20:22 34.426107 -119.837083 178 17ft 0kts
19-Jan-16 20:23 34.426107 -119.837083 178 17ft 0kts
19-Jan-16 20:24 34.426107 -119.837083 178 17ft 0kts
19-Jan-16 20:25 34.426107 -119.837083 178 17ft 0kts
19-Jan-16 20:26 34.426107 -119.837083 178 17ft 0kts
19-Jan-16 20:27 34.426107 -119.837083 178 17ft 0kts
19-Jan-16 20:28 34.426107 -119.837083 178 17ft 0kts
19-Jan-16 20:29 34.426107 -119.837083 178 17ft 0kts
19-Jan-16 20:30 34.426107 -119.837083 178 17ft 0kts
19-Jan-16 20:31 34.426107 -119.837083 178 17ft 0kts
19-Jan-16 20:32 34.426107 -119.837083 178 17ft 0kts
19-Jan-16 20:33 34.426107 -119.837083 178 17ft 0kts
19-Jan-16 20:34 34.426107 -119.837083 178 17ft 0kts
19-Jan-16 20:35 34.426107 -119.837083 178 17ft 0kts
19-Jan-16 20:36 34.426107 -119.837083 178 17ft 0kts
19-Jan-16 20:37 34.426107 -119.837083 178 17ft 0kts
19-Jan-16 20:38 34.426107 -119.837083 178 17ft 0kts
19-Jan-16 20:39 34.426107 -119.837083 178 17ft 0kts
19-Jan-16 20:40 34.426109 -119.837083 178 17ft 0kts
19-Jan-16 20:41 34.426273 -119.836802 299 17ft 0kts
19-Jan-16 20:42 34.426273 -119.836802 299 17ft 0kts
19-Jan-16 20:43 34.426273 -119.836802 299 17ft 0kts
19-Jan-16 20:44 34.426613 -119.836527 73 17ft 5kts
19-Jan-16 20:45 34.427072 -119.834586 10 17ft 0kts
19-Jan-16 20:46 34.427072 -119.834586 10 17ft 0kts
19-Jan-16 20:47 34.427073 -119.834586 10 17ft 0kts
19-Jan-16 20:48 34.427919 -119.835807 269 17ft 31kts
19-Jan-16 20:49 34.426161 -119.879025 265 1873ft 160kts
19-Jan-16 20:50 34.423759 -119.941878 265 4675ft 195kts
19-Jan-16 20:51 34.405318 -119.989074 203 7369ft 207kts
19-Jan-16 20:52 34.343919 -120.002377 177 10234ft 225kts
19-Jan-16 20:53 34.317879 -119.926276 82 13395ft 234kts
19-Jan-16 20:54 34.320652 -119.857765 82 14957ft 265kts
19-Jan-16 20:55 34.325323 -119.754920 83 15005ft 335kts
19-Jan-16 20:56 34.330181 -119.636987 84 15003ft 364kts
19-Jan-16 20:57 34.334959 -119.511659 84 15005ft 378kts
19-Jan-16 20:58 34.339604 -119.383536 84 15008ft 383kts
19-Jan-16 20:59 34.344233 -119.253834 84 15009ft 385kts
19-Jan-16 21:00 34.348725 -119.123741 84 15002ft 386kts
19-Jan-16 21:01 34.353034 -118.993539 84 14996ft 386kts
19-Jan-16 21:02 34.351936 -118.863898 102 15000ft 390kts
19-Jan-16 21:03 34.309210 -118.742734 113 15008ft 391kts
19-Jan-16 21:04 34.267574 -118.620771 111 15012ft 392kts
19-Jan-16 21:05 34.226157 -118.499227 112 15016ft 392kts
19-Jan-16 21:06 34.187621 -118.375984 107 15007ft 392kts
19-Jan-16 21:07 34.150897 -118.251819 109 15002ft 391kts
19-Jan-16 21:08 34.112852 -118.128428 109 15003ft 391kts
19-Jan-16 21:09 34.076688 -118.005178 100 15009ft 389kts
19-Jan-16 21:10 34.077038 -117.875986 84 15026ft 384kts
19-Jan-16 21:11 34.059206 -117.750780 124 15043ft 389kts
19-Jan-16 21:12 33.991671 -117.648864 129 15019ft 389kts
19-Jan-16 21:13 33.927372 -117.545004 128 13390ft 381kts
19-Jan-16 21:14 33.848233 -117.470167 150 13039ft 353kts
19-Jan-16 21:15 33.767280 -117.403810 148 13026ft 356kts
19-Jan-16 21:16 33.722886 -117.301774 91 13029ft 358kts
19-Jan-16 21:17 33.715945 -117.182230 92 13028ft 358kts
19-Jan-16 21:18 33.705815 -117.063126 93 13025ft 358kts
19-Jan-16 21:19 33.695898 -116.944250 92 13014ft 356kts
19-Jan-16 21:20 33.686069 -116.826259 93 12893ft 356kts
19-Jan-16 21:21 33.675945 -116.707739 93 11354ft 351kts
19-Jan-16 21:22 33.666535 -116.593448 94 9650ft 328kts
19-Jan-16 21:23 33.657632 -116.491488 95 8988ft 288kts
19-Jan-16 21:24 33.649064 -116.396499 95 8966ft 285kts
19-Jan-16 21:25 33.640759 -116.302244 95 8962ft 283kts
19-Jan-16 21:26 33.642597 -116.209492 98 8386ft 280kts
19-Jan-16 21:27 33.650286 -116.127594 36 6574ft 240kts
19-Jan-16 21:28 33.701098 -116.145956 309 4788ft 202kts
19-Jan-16 21:29 33.721120 -116.202427 255 3025ft 180kts
19-Jan-16 21:30 33.708537 -116.259808 251 2935ft 172kts
19-Jan-16 21:31 33.715099 -116.316787 304 2955ft 186kts
19-Jan-16 21:32 33.744009 -116.365950 304 2961ft 173kts
19-Jan-16 21:33 33.768497 -116.409771 292 2837ft 134kts
19-Jan-16 21:34 33.780890 -116.450878 293 1605ft 131kts
19-Jan-16 21:35 33.804433 -116.482136 322 962ft 123kts
19-Jan-16 21:36 33.830155 -116.505219 322 484ft 62kts
19-Jan-16 21:37 33.831198 -116.506939 234 484ft 0kts
19-Jan-16 21:38 33.829834 -116.507226 179 484ft 14kts
19-Jan-16 21:39 33.826273 -116.506843 181 484ft 8kts
19-Jan-16 21:40 33.823830 -116.505409 142 484ft 8kts
19-Jan-16 21:41 33.821557 -116.506124 188 484ft 2kts
19-Jan-16 21:42 33.821410 -116.506626 269 484ft 0kts
19-Jan-16 21:43 33.821410 -116.506626 269 484ft 0kts
19-Jan-16 21:44 33.821410 -116.506626 269 484ft 0kts
19-Jan-16 21:45 33.821410 -116.506626 269 484ft 0kts
19-Jan-16 21:46 33.821410 -116.506626 269 484ft 0kts
19-Jan-16 21:47 33.821410 -116.506626 269 484ft 0kts
19-Jan-16 21:48 33.821410 -116.506626 269 484ft 0kts

Navigation Log

Ident Type
Flight plan parsing failed, navigation log unavailable